createdAt,value
2019-02-23T00:01:25.114Z,87.10
2019-02-23T00:03:54.882Z,86.51
2019-02-23T00:06:29.681Z,86.85
2019-02-23T00:08:56.082Z,86.25
2019-02-23T00:11:27.633Z,87.21
2019-02-23T00:13:57.251Z,87.62
2019-02-23T00:16:26.863Z,87.63
2019-02-23T00:18:56.536Z,86.07
2019-02-23T00:21:26.193Z,87.13
2019-02-23T00:23:55.907Z,85.47
2019-02-23T00:26:25.941Z,85.49
2019-02-23T00:28:55.830Z,86.53
2019-02-23T00:31:25.655Z,86.20
2019-02-23T00:33:55.515Z,86.44
2019-02-23T00:36:26.555Z,86.62
2019-02-23T00:38:56.320Z,86.66
2019-02-23T00:41:25.928Z,87.45
2019-02-23T00:43:55.797Z,86.86
2019-02-23T00:46:25.781Z,86.96
2019-02-23T00:48:55.579Z,84.76
2019-02-23T00:51:25.510Z,85.83
2019-02-23T00:53:55.328Z,85.96
2019-02-23T00:56:25.278Z,86.81
2019-02-23T00:58:55.040Z,85.95
2019-02-23T01:01:24.652Z,85.90
2019-02-23T01:03:54.612Z,86.18
2019-02-23T01:06:24.385Z,85.96
2019-02-23T01:08:54.212Z,85.55
2019-02-23T01:11:24.256Z,85.56
2019-02-23T01:13:54.264Z,85.92
2019-02-23T01:16:24.143Z,83.54
2019-02-23T01:18:54.030Z,84.16
2019-02-23T01:21:23.786Z,83.11
2019-02-23T01:23:53.647Z,82.49
2019-02-23T01:26:23.560Z,83.25
2019-02-23T01:28:53.330Z,83.18
2019-02-23T01:31:23.081Z,82.18
2019-02-23T01:33:52.749Z,83.61
2019-02-23T01:36:22.485Z,83.59
2019-02-23T01:38:52.173Z,82.78
2019-02-23T01:41:22.031Z,82.30
2019-02-23T01:43:54.056Z,82.13
2019-02-23T01:46:24.047Z,83.36
2019-02-23T01:48:53.679Z,82.17
2019-02-23T01:51:23.520Z,82.30
2019-02-23T01:53:53.626Z,82.70
2019-02-23T01:56:25.470Z,81.92
2019-02-23T01:58:55.299Z,82.32
2019-02-23T02:01:25.261Z,80.81
2019-02-23T02:03:55.021Z,80.44
2019-02-23T02:06:24.839Z,80.10
2019-02-23T02:08:54.963Z,79.68
2019-02-23T02:11:25.845Z,79.87
2019-02-23T02:13:55.946Z,79.52
2019-02-23T02:16:25.758Z,80.15
2019-02-23T02:18:55.640Z,80.04
2019-02-23T02:21:25.264Z,78.17
2019-02-23T02:23:55.011Z,78.62
2019-02-23T02:26:24.804Z,78.25
2019-02-23T02:28:54.492Z,77.72
2019-02-23T02:31:25.574Z,77.79
2019-02-23T02:34:12.100Z,77.93
2019-02-23T02:36:42.224Z,78.79
2019-02-23T02:39:13.846Z,77.89
2019-02-23T02:41:43.650Z,78.33
2019-02-23T02:44:13.408Z,78.27
2019-02-23T02:46:43.269Z,77.35
2019-02-23T02:49:13.083Z,77.92
2019-02-23T02:51:42.743Z,76.38
2019-02-23T02:54:12.625Z,76.84
2019-02-23T02:56:42.418Z,76.64
2019-02-23T02:59:12.391Z,75.75
2019-02-23T03:01:42.079Z,72.67
2019-02-23T03:04:11.964Z,73.58
2019-02-23T03:06:41.618Z,71.48
2019-02-23T03:09:12.503Z,70.08
2019-02-23T03:11:42.451Z,70.35
2019-02-23T03:14:12.408Z,69.60
2019-02-23T03:16:42.068Z,69.97
2019-02-23T03:19:11.882Z,70.13
2019-02-23T03:21:42.179Z,68.79
2019-02-23T03:24:11.816Z,70.19
2019-02-23T03:26:41.698Z,70.21
2019-02-23T03:29:11.439Z,69.20
2019-02-23T03:31:41.262Z,69.66
2019-02-23T03:34:11.245Z,68.94
2019-02-23T03:36:41.083Z,68.25
2019-02-23T03:39:10.730Z,66.99
2019-02-23T03:41:40.582Z,67.76
2019-02-23T03:44:10.666Z,67.98
2019-02-23T03:46:40.886Z,67.06
2019-02-23T03:49:10.615Z,67.18
2019-02-23T03:51:40.404Z,66.87
2019-02-23T03:54:10.582Z,67.87
2019-02-23T03:56:40.440Z,66.82
2019-02-23T03:59:11.265Z,65.80
2019-02-23T04:01:41.058Z,67.72
2019-02-23T04:04:11.425Z,68.38
2019-02-23T04:06:41.219Z,65.60
2019-02-23T04:09:11.072Z,65.54
2019-02-23T04:11:40.948Z,65.02
2019-02-23T04:14:10.762Z,64.33
2019-02-23T04:16:40.501Z,64.53
2019-02-23T04:19:10.345Z,65.22
2019-02-23T04:21:40.143Z,67.25
2019-02-23T04:24:09.810Z,69.61
2019-02-23T04:26:39.558Z,70.81
2019-02-23T04:29:09.287Z,71.50
2019-02-23T04:31:39.145Z,71.63
2019-02-23T04:34:08.972Z,70.06
2019-02-23T04:36:38.936Z,69.18
2019-02-23T04:39:09.108Z,68.31
2019-02-23T04:41:38.833Z,65.71
2019-02-23T04:44:08.693Z,66.47
2019-02-23T04:46:38.416Z,69.15
2019-02-23T04:49:08.245Z,69.91
2019-02-23T04:51:37.919Z,70.54
2019-02-23T04:54:07.584Z,69.42
2019-02-23T04:56:37.408Z,68.76
2019-02-23T04:59:07.070Z,68.14
2019-02-23T05:01:37.028Z,68.12
2019-02-23T05:04:06.845Z,68.71
2019-02-23T05:06:36.554Z,67.29
2019-02-23T05:09:07.365Z,66.96
2019-02-23T05:11:37.002Z,64.59
2019-02-23T05:14:06.826Z,64.04
2019-02-23T05:16:36.750Z,64.90
2019-02-23T05:19:06.542Z,65.21
2019-02-23T05:21:36.412Z,64.15
2019-02-23T05:24:06.276Z,63.66
2019-02-23T05:26:36.009Z,63.05
2019-02-23T05:29:05.982Z,63.30
2019-02-23T05:31:35.853Z,63.75
2019-02-23T05:34:05.653Z,63.73
2019-02-23T05:36:35.794Z,63.26
2019-02-23T05:39:06.932Z,63.12
2019-02-23T05:41:36.667Z,63.28
2019-02-23T05:44:06.458Z,64.15
2019-02-23T05:46:36.532Z,63.73
2019-02-23T05:49:06.715Z,62.20
2019-02-23T05:51:38.989Z,61.56
2019-02-23T05:54:08.042Z,62.03
2019-02-23T05:56:37.659Z,60.80
2019-02-23T05:59:07.461Z,60.82
2019-02-23T06:01:37.321Z,61.48
2019-02-23T06:04:07.214Z,61.80
2019-02-23T06:06:37.339Z,60.73
2019-02-23T06:09:08.771Z,60.65
2019-02-23T06:11:38.460Z,60.48
2019-02-23T06:14:08.415Z,60.23
2019-02-23T06:16:38.226Z,60.37
2019-02-23T06:19:08.073Z,59.45
2019-02-23T06:21:37.739Z,59.02
2019-02-23T06:24:07.599Z,59.07
2019-02-23T06:26:37.689Z,60.24
2019-02-23T06:29:07.590Z,59.82
2019-02-23T06:31:37.356Z,58.81
2019-02-23T06:34:15.643Z,58.71
2019-02-23T06:36:38.581Z,59.79
2019-02-23T06:39:08.959Z,57.70
2019-02-23T06:41:38.803Z,57.19
2019-02-23T06:44:08.517Z,57.75
2019-02-23T06:46:38.214Z,58.64
2019-02-23T06:49:07.954Z,57.52
2019-02-23T06:51:37.764Z,55.25
2019-02-23T06:54:07.630Z,56.82
2019-02-23T06:56:37.699Z,57.07
2019-02-23T06:59:07.762Z,56.28
2019-02-23T07:01:37.549Z,57.76
2019-02-23T07:04:07.449Z,56.90
2019-02-23T07:06:37.287Z,57.15
2019-02-23T07:09:07.803Z,56.74
2019-02-23T07:11:37.821Z,56.97
2019-02-23T07:14:07.801Z,56.55
2019-02-23T07:16:37.687Z,56.24
2019-02-23T07:19:07.365Z,56.45
2019-02-23T07:21:37.200Z,53.71
2019-02-23T07:24:06.952Z,54.82
2019-02-23T07:26:36.912Z,56.44
2019-02-23T07:29:06.844Z,54.32
2019-02-23T07:31:36.979Z,55.18
2019-02-23T07:34:06.862Z,52.21
2019-02-23T07:36:36.840Z,53.05
2019-02-23T07:39:07.515Z,54.29
2019-02-23T07:41:37.336Z,53.93
2019-02-23T07:44:07.174Z,54.15
2019-02-23T07:46:37.281Z,53.53
2019-02-23T07:49:07.202Z,54.17
2019-02-23T07:51:39.377Z,52.70
2019-02-23T07:54:10.398Z,53.86
2019-02-23T07:56:40.261Z,52.07
2019-02-23T07:59:10.071Z,52.25
2019-02-23T08:01:39.825Z,52.92
2019-02-23T08:04:10.985Z,52.90
2019-02-23T08:06:40.899Z,53.09
2019-02-23T08:09:12.864Z,53.40
2019-02-23T08:11:42.779Z,53.43
2019-02-23T08:14:12.916Z,55.03
2019-02-23T08:16:42.842Z,55.11
2019-02-23T08:19:12.856Z,54.79
2019-02-23T08:21:42.550Z,54.79
2019-02-23T08:24:13.623Z,55.12
2019-02-23T08:26:43.405Z,53.70
2019-02-23T08:29:13.230Z,54.86
2019-02-23T08:31:43.096Z,53.70
2019-02-23T08:34:12.868Z,52.90
2019-02-23T08:36:42.891Z,54.15
2019-02-23T08:39:12.921Z,53.71
2019-02-23T08:41:43.382Z,53.71
2019-02-23T08:44:13.352Z,54.03
2019-02-23T08:46:43.165Z,55.32
2019-02-23T08:49:12.976Z,56.54
2019-02-23T08:51:42.823Z,55.77
2019-02-23T08:54:12.587Z,54.31
2019-02-23T08:56:42.438Z,54.08
2019-02-23T08:59:12.279Z,54.38
2019-02-23T09:01:42.040Z,52.99
2019-02-23T09:04:11.848Z,52.73
2019-02-23T09:06:43.143Z,54.32
2019-02-23T09:09:12.929Z,52.24
2019-02-23T09:11:42.677Z,52.26
2019-02-23T09:14:12.429Z,54.25
2019-02-23T09:16:42.159Z,55.86
2019-02-23T09:19:11.914Z,56.07
2019-02-23T09:21:41.573Z,56.59
2019-02-23T09:24:11.289Z,56.59
2019-02-23T09:26:42.433Z,58.09
2019-02-23T09:29:12.369Z,54.62
2019-02-23T09:31:42.174Z,54.48
2019-02-23T09:34:12.134Z,54.99
2019-02-23T09:36:41.916Z,53.72
2019-02-23T09:39:11.724Z,55.93
2019-02-23T09:41:41.608Z,55.19
2019-02-23T09:44:11.247Z,53.63
2019-02-23T09:46:41.356Z,52.68
2019-02-23T09:49:11.186Z,53.35
2019-02-23T09:51:41.075Z,52.20
2019-02-23T09:54:10.873Z,51.88
2019-02-23T09:56:40.829Z,53.59
2019-02-23T09:59:10.632Z,52.97
2019-02-23T10:01:40.470Z,51.14
2019-02-23T10:04:11.400Z,53.10
2019-02-23T10:06:41.098Z,51.54
2019-02-23T10:09:10.805Z,51.82
2019-02-23T10:11:40.676Z,51.40
2019-02-23T10:14:10.556Z,50.74
2019-02-23T10:16:40.368Z,50.10
2019-02-23T10:19:10.290Z,51.62
2019-02-23T10:21:39.971Z,51.02
2019-02-23T10:24:10.927Z,51.04
2019-02-23T10:26:40.732Z,51.68
2019-02-23T10:29:11.827Z,52.91
2019-02-23T10:31:41.629Z,53.58
2019-02-23T10:34:11.542Z,51.18
2019-02-23T10:36:41.484Z,50.82
2019-02-23T10:39:11.262Z,51.93
2019-02-23T10:41:41.056Z,49.41
2019-02-23T10:44:11.047Z,50.06
2019-02-23T10:46:40.788Z,48.75
2019-02-23T10:49:10.764Z,48.57
2019-02-23T10:51:40.417Z,49.89
2019-02-23T10:54:10.223Z,49.50
2019-02-23T10:56:40.120Z,50.38
2019-02-23T10:59:11.210Z,51.17
2019-02-23T11:01:41.019Z,50.90
2019-02-23T11:04:10.832Z,52.66
2019-02-23T11:06:40.639Z,51.43
2019-02-23T11:09:16.676Z,50.86
2019-02-23T11:11:48.411Z,50.12
2019-02-23T11:14:18.261Z,50.90
2019-02-23T11:16:48.210Z,49.49
2019-02-23T11:19:17.917Z,50.10
2019-02-23T11:21:47.708Z,49.22
2019-02-23T11:24:18.506Z,48.41
2019-02-23T11:26:48.526Z,49.65
2019-02-23T11:29:18.195Z,50.11
2019-02-23T11:31:48.102Z,49.92
2019-02-23T11:34:19.065Z,49.81
2019-02-23T11:36:48.952Z,50.60
2019-02-23T11:39:18.894Z,50.59
2019-02-23T11:41:48.629Z,50.89
2019-02-23T11:44:18.398Z,50.76
2019-02-23T11:46:59.870Z,50.93
2019-02-23T11:49:21.725Z,51.91
2019-02-23T11:51:51.752Z,51.44
2019-02-23T11:54:21.608Z,51.30
2019-02-23T11:56:51.576Z,51.58
2019-02-23T11:59:23.671Z,49.38
2019-02-23T12:01:54.079Z,49.13
2019-02-23T12:04:24.018Z,47.88
2019-02-23T12:06:53.789Z,49.79
2019-02-23T12:09:23.720Z,49.22
2019-02-23T12:11:54.014Z,49.37
2019-02-23T12:14:25.860Z,49.36
2019-02-23T12:16:55.287Z,50.86
2019-02-23T12:19:24.952Z,50.16
2019-02-23T12:21:54.626Z,51.08
2019-02-23T12:24:24.550Z,51.38
2019-02-23T12:26:54.434Z,51.99
2019-02-23T12:29:24.072Z,51.79
2019-02-23T12:31:53.939Z,51.42
2019-02-23T12:34:23.613Z,50.81
2019-02-23T12:36:53.314Z,50.47
2019-02-23T12:39:23.052Z,51.15
2019-02-23T12:41:52.828Z,51.25
2019-02-23T12:44:22.662Z,51.61
2019-02-23T12:46:52.378Z,51.64
2019-02-23T12:49:22.389Z,52.48
2019-02-23T12:51:52.409Z,50.84
2019-02-23T12:54:23.353Z,50.71
2019-02-23T12:56:53.252Z,52.52
2019-02-23T12:59:22.986Z,52.36
2019-02-23T13:01:52.719Z,52.48
2019-02-23T13:04:22.503Z,53.63
2019-02-23T13:06:52.248Z,52.33
2019-02-23T13:09:30.726Z,52.53
2019-02-23T13:12:15.309Z,53.31
2019-02-23T13:15:13.773Z,53.50
2019-02-23T13:18:29.596Z,54.34
2019-02-23T13:21:49.162Z,54.58
2019-02-23T13:24:47.537Z,55.25
2019-02-23T13:28:08.358Z,55.10
2019-02-23T13:31:21.790Z,55.10
2019-02-23T13:34:35.186Z,58.02
2019-02-23T13:37:44.982Z,58.26
2019-02-23T13:40:35.225Z,58.11
2019-02-23T13:43:51.381Z,58.32
2019-02-23T13:46:51.448Z,57.96
2019-02-23T13:49:59.861Z,58.47
2019-02-23T13:53:18.079Z,58.83
2019-02-23T13:56:18.026Z,60.13
2019-02-23T13:59:14.121Z,57.17
2019-02-23T14:02:24.528Z,56.07
2019-02-23T14:05:25.631Z,54.94
2019-02-23T14:08:30.716Z,56.05
2019-02-23T14:11:31.003Z,57.06
2019-02-23T14:14:44.491Z,55.89
2019-02-23T14:17:48.277Z,54.85
2019-02-23T14:20:52.169Z,55.61
2019-02-23T14:24:11.891Z,56.20
2019-02-23T14:27:15.872Z,55.69
2019-02-23T14:30:17.269Z,55.86
2019-02-23T14:33:30.456Z,55.66
2019-02-23T14:36:21.528Z,56.81
2019-02-23T14:39:34.804Z,58.75
2019-02-23T14:42:30.478Z,58.76
2019-02-23T14:45:50.823Z,59.08
2019-02-23T14:49:34.874Z,59.87
2019-02-23T14:52:50.102Z,59.00
2019-02-23T14:55:42.301Z,59.00
2019-02-23T14:58:58.558Z,57.93
2019-02-23T15:01:43.382Z,57.38
2019-02-23T15:04:42.520Z,56.18
2019-02-23T15:07:57.852Z,55.92
2019-02-23T15:11:17.122Z,56.51
2019-02-23T15:14:11.319Z,57.19
2019-02-23T15:17:10.445Z,56.68
2019-02-23T15:20:16.163Z,56.59
2019-02-23T15:23:00.454Z,57.43
2019-02-23T15:25:58.193Z,57.66
2019-02-23T15:29:15.059Z,57.74
2019-02-23T15:32:24.291Z,58.29
2019-02-23T15:35:29.947Z,58.93
2019-02-23T15:38:55.624Z,59.06
2019-02-23T15:41:56.164Z,59.96
2019-02-23T15:45:05.853Z,59.69
2019-02-23T15:48:10.908Z,59.83
2019-02-23T15:50:41.904Z,59.55
2019-02-23T15:53:11.624Z,59.42
2019-02-23T15:55:42.860Z,59.41
2019-02-23T15:58:12.654Z,58.72
2019-02-23T16:00:43.401Z,57.69
2019-02-23T16:03:13.379Z,58.14
2019-02-23T16:05:43.018Z,58.28
2019-02-23T16:08:12.928Z,59.18
2019-02-23T16:10:42.596Z,57.95
2019-02-23T16:13:12.457Z,58.50
2019-02-23T16:15:42.172Z,58.75
2019-02-23T16:18:13.458Z,58.01
2019-02-23T16:20:43.236Z,58.37
2019-02-23T16:23:14.419Z,58.12
2019-02-23T16:25:44.380Z,58.80
2019-02-23T16:28:14.229Z,58.63
2019-02-23T16:30:44.050Z,58.18
2019-02-23T16:33:15.034Z,58.90
2019-02-23T16:35:44.676Z,58.71
2019-02-23T16:38:14.497Z,59.15
2019-02-23T16:40:44.582Z,59.46
2019-02-23T16:43:14.354Z,60.49
2019-02-23T16:45:44.157Z,59.95
2019-02-23T16:48:14.312Z,59.56
2019-02-23T16:50:44.187Z,59.29
2019-02-23T16:53:14.007Z,59.62
2019-02-23T16:55:50.809Z,59.37
2019-02-23T16:58:17.712Z,58.65
2019-02-23T17:00:47.328Z,58.48
2019-02-23T17:03:18.403Z,58.44
2019-02-23T17:05:48.190Z,58.75
2019-02-23T17:08:18.121Z,58.78
2019-02-23T17:10:49.988Z,59.49
2019-02-23T17:13:19.899Z,60.24
2019-02-23T17:15:49.706Z,60.95
2019-02-23T17:18:19.576Z,61.68
2019-02-23T17:20:49.229Z,61.98
2019-02-23T17:23:19.408Z,61.89
2019-02-23T17:25:49.476Z,61.45
2019-02-23T17:28:19.276Z,61.87
2019-02-23T17:30:49.263Z,62.10
2019-02-23T17:33:19.127Z,61.99
2019-02-23T17:35:50.303Z,61.76
2019-02-23T17:38:20.208Z,61.10
2019-02-23T17:40:50.414Z,60.80
2019-02-23T17:43:20.247Z,61.34
2019-02-23T17:45:50.050Z,61.88
2019-02-23T17:48:20.023Z,61.14
2019-02-23T17:50:50.771Z,61.50
2019-02-23T17:53:20.855Z,61.65
2019-02-23T17:55:50.727Z,61.73
2019-02-23T17:58:20.759Z,61.93
2019-02-23T18:00:50.502Z,61.89
2019-02-23T18:03:20.259Z,62.45
2019-02-23T18:05:50.184Z,62.90
2019-02-23T18:08:20.132Z,61.75
2019-02-23T18:10:50.010Z,61.16
2019-02-23T18:13:19.844Z,61.81
2019-02-23T18:15:49.925Z,62.07
2019-02-23T18:18:19.827Z,62.92
2019-02-23T18:20:49.915Z,62.39
2019-02-23T18:23:19.786Z,62.89
2019-02-23T18:25:49.455Z,63.33
2019-02-23T18:28:19.246Z,63.84
2019-02-23T18:30:49.110Z,63.52
2019-02-23T18:33:18.857Z,63.69
2019-02-23T18:35:48.580Z,64.23
2019-02-23T18:38:18.547Z,64.28
2019-02-23T18:40:48.332Z,65.19
2019-02-23T18:43:18.010Z,65.45
2019-02-23T18:45:47.999Z,65.56
2019-02-23T18:48:17.746Z,65.49
2019-02-23T18:50:47.705Z,65.54
2019-02-23T18:53:18.741Z,65.65
2019-02-23T18:55:48.754Z,65.83
2019-02-23T18:58:18.532Z,66.31
2019-02-23T19:00:48.542Z,67.29
2019-02-23T19:03:18.361Z,67.94
2019-02-23T19:05:50.279Z,67.85
2019-02-23T19:08:20.260Z,67.19
2019-02-23T19:10:49.971Z,66.69
2019-02-23T19:13:19.718Z,66.36
2019-02-23T19:15:49.677Z,65.83
2019-02-23T19:18:19.197Z,66.03
2019-02-23T19:20:49.143Z,65.93
2019-02-23T19:23:19.078Z,66.62
2019-02-23T19:25:48.944Z,66.63
2019-02-23T19:28:18.763Z,66.03
2019-02-23T19:30:48.718Z,66.83
2019-02-23T19:33:18.491Z,66.45
2019-02-23T19:35:48.434Z,66.40
2019-02-23T19:38:18.340Z,66.87
2019-02-23T19:40:49.421Z,67.38
2019-02-23T19:43:19.180Z,66.92
2019-02-23T19:45:48.897Z,67.20
2019-02-23T19:48:18.750Z,67.08
2019-02-23T19:50:55.208Z,67.45
2019-02-23T19:53:25.035Z,68.14
2019-02-23T19:55:54.905Z,68.28
2019-02-23T19:58:24.731Z,68.78
2019-02-23T20:00:54.654Z,69.02
2019-02-23T20:03:24.465Z,69.02
2019-02-23T20:05:55.547Z,69.57
2019-02-23T20:08:25.330Z,70.29
2019-02-23T20:10:55.124Z,70.76
2019-02-23T20:13:26.227Z,71.23
2019-02-23T20:15:56.091Z,70.40
2019-02-23T20:18:25.803Z,69.86
2019-02-23T20:20:55.763Z,70.18
2019-02-23T20:23:25.655Z,70.34
2019-02-23T20:25:55.448Z,70.51
2019-02-23T20:28:25.204Z,69.92
2019-02-23T20:30:54.980Z,70.31
2019-02-23T20:33:24.805Z,70.42
2019-02-23T20:35:54.845Z,70.86
2019-02-23T20:38:24.733Z,71.08
2019-02-23T20:40:54.627Z,71.96
2019-02-23T20:43:24.396Z,72.04
2019-02-23T20:45:54.187Z,71.92
2019-02-23T20:48:24.223Z,72.01
2019-02-23T20:50:54.008Z,72.09
2019-02-23T20:53:24.214Z,72.46
2019-02-23T20:55:55.187Z,72.29
2019-02-23T20:58:25.412Z,73.16
2019-02-23T21:00:55.817Z,73.61
2019-02-23T21:03:25.685Z,72.47
2019-02-23T21:05:55.679Z,72.35
2019-02-23T21:08:25.519Z,72.35
2019-02-23T21:10:56.805Z,71.64
2019-02-23T21:13:26.536Z,71.55
2019-02-23T21:15:56.258Z,71.38
2019-02-23T21:18:26.107Z,71.41
2019-02-23T21:20:55.888Z,71.87
2019-02-23T21:23:25.587Z,72.03
2019-02-23T21:25:55.410Z,72.16
2019-02-23T21:28:26.689Z,72.57
2019-02-23T21:30:56.676Z,72.38
2019-02-23T21:33:26.578Z,72.39
2019-02-23T21:35:56.302Z,72.78
2019-02-23T21:38:26.102Z,73.08
2019-02-23T21:40:55.978Z,72.98
2019-02-23T21:43:25.732Z,73.10
2019-02-23T21:45:55.848Z,73.17
2019-02-23T21:48:26.724Z,73.43
2019-02-23T21:50:56.603Z,73.63
2019-02-23T21:53:26.661Z,74.25
2019-02-23T21:55:56.849Z,75.03
2019-02-23T21:58:26.768Z,74.94
2019-02-23T22:00:56.808Z,74.63
2019-02-23T22:03:26.649Z,75.11
2019-02-23T22:05:56.429Z,75.49
2019-02-23T22:08:26.248Z,75.50
2019-02-23T22:10:56.212Z,75.58
2019-02-23T22:13:26.294Z,76.10
2019-02-23T22:15:56.206Z,76.37
2019-02-23T22:18:27.357Z,76.20
2019-02-23T22:20:57.244Z,76.38
2019-02-23T22:23:27.055Z,76.16
2019-02-23T22:25:56.824Z,75.76
2019-02-23T22:28:26.490Z,76.17
2019-02-23T22:30:56.317Z,76.81
2019-02-23T22:33:26.162Z,77.20
2019-02-23T22:35:55.827Z,77.71
2019-02-23T22:38:25.648Z,78.28
2019-02-23T22:40:55.605Z,78.26
2019-02-23T22:43:25.381Z,78.09
2019-02-23T22:45:55.197Z,78.33
2019-02-23T22:48:25.042Z,77.83
2019-02-23T22:50:54.945Z,77.83
2019-02-23T22:53:24.724Z,77.80
2019-02-23T22:55:54.596Z,77.82
2019-02-23T22:58:24.352Z,78.08
2019-02-23T23:00:55.455Z,77.49
2019-02-23T23:03:26.555Z,77.55
2019-02-23T23:05:56.263Z,77.13
2019-02-23T23:08:26.168Z,77.68
2019-02-23T23:10:57.153Z,77.56
2019-02-23T23:13:26.944Z,77.25
2019-02-23T23:15:56.861Z,76.94
2019-02-23T23:18:26.811Z,77.28
2019-02-23T23:20:56.590Z,77.47
2019-02-23T23:23:26.683Z,77.44
2019-02-23T23:25:56.634Z,77.61
2019-02-23T23:28:26.450Z,77.95
2019-02-23T23:30:56.453Z,77.78
2019-02-23T23:33:26.161Z,77.91
2019-02-23T23:35:56.075Z,78.94
2019-02-23T23:38:25.873Z,78.82
2019-02-23T23:40:55.703Z,79.41
2019-02-23T23:43:25.510Z,79.20
2019-02-23T23:45:55.353Z,79.35
2019-02-23T23:48:25.151Z,79.43
2019-02-23T23:50:56.292Z,79.24
2019-02-23T23:53:26.362Z,79.25
2019-02-23T23:55:56.022Z,79.22
2019-02-23T23:58:25.740Z,78.93
